Terminal Aerodrome Forecast
Issued by NWS Bismarck, ND

Home | Current Version | Previous Version | Graphics & Text | Print | Product List | Glossary On
Versions: 1 2 3 4 5 6 7 8 9 10 11 12 13
000
FTUS43 KBIS 250520
TAFISN
TAF
KISN 250520Z 2506/2606 06009KT P6SM OVC010
     FM251600 04012KT P6SM BKN020
     FM252200 04011G19KT P6SM BKN040
     FM260000 05011KT P6SM BKN045=

USA.gov is the U.S. government's official web portal to all federal, state and local government web resources and services.